Terminal Aerodrome Forecast
Issued by NWS

Home | Current Version | Previous Version | Text Only | Print | Product List | Glossary On
Versions: 1 2 3 4 5 6 7 8 9 10 11 12 13 14 15 16 17 18 19 20 21 22 23 24 25 26 27 28 29 30 31
000
FTUS43 KLOT 222342
TAFMDW
TAF
KMDW 222342Z 2300/2406 17009KT 6SM -SHRA SCT030 BKN050
      TEMPO 2300/2301 3SM -TSRA BKN030CB
     FM230200 25010KT 6SM BR VCSH SCT015 OVC035
     FM231000 29013G20KT 3SM -SN SCT008 OVC015
      TEMPO 2310/2314 1SM -SN SCT004 OVC008
     FM231400 32015G22KT 6SM -SHSN OVC015
     FM232200 31012KT P6SM BKN030=

USA.gov is the U.S. government's official web portal to all federal, state and local government web resources and services.